South Daytona Beach, Florida
Current Conditions -  °F | °C
As of 11:53 PM on Tuesday 25 Nov 2014 (Local Time) from KDAB Reporting Station
Thunderstorm Thunderstorm  
Wind Chill: 70°   Ceiling: 11000
Heat Index: 70°   Visibility: 5mi
Dew Point: 69°   Wind: 10mph
Humidity: 97%   Direction: 150°SSE
Pressure: 29.86"   Gusts: NA
Location:  29.1638°N, 81.0283°W
Report Text: KDAB 260453Z 15009KT 5SM -TSRA BR SCT007 SCT030CB OVC110 21/21 A2986 RMK AO2 TSE25B51 SLP110 OCNL LTGIC S TS S MOV NE P0011 T02110206 402390200
Loading
Personal Weather Stations






























Interactive Weather Map New forecast layout! Learn more

10-Day Weather Forecast

Advertisements
Track Severe Weather on mobile